Toyofujimaru No.2 — 7JDI — position and weather

sailwx.info

Track history (hours):
 
Tides and Currents Weather Stations Pressure Air Temp Water Temp Dewpoint Dewpoint Depression Visibility Wind Speed Wind Dir Waves Ship Positions

Toyofujimaru No.2

Last reported at 2017-Feb-27 12:30 UTC. Time now 2017-Feb-28 10:03 UTC.
Position N 34°56' E 140°10'.

Length 165 m; draft 6.2 m.

Type: Ship. MMSI: 432667000.

Date/timePositionNaut miles runAvg speedWind from/ knotsBaromVisibWave heightAir tempDewpointWater temp
2017-Feb-27 12:30N 34°56' E 140°10'1918.2
2017-Feb-27 11:28N 34°51' E 139°48'1617.7
2017-Feb-27 10:33N 35°07' E 139°44'1312.8
2017-Feb-27 09:33N 35°20' E 139°43'1110.9
2017-Feb-27 08:33N 35°30' E 139°46'0 0.0
2017-Feb-27 07:32N 35°30' E 139°46'0 0.0
2017-Feb-27 06:32N 35°30' E 139°46'0 0.0
2017-Feb-27 05:32N 35°30' E 139°46'0 0.0
2017-Feb-27 04:32N 35°30' E 139°46'5 5.2
2017-Feb-27 03:33N 35°26' E 139°43'4 4.0
2017-Feb-27 02:31N 35°23' E 139°39'0 0.0
2017-Feb-27 01:31N 35°23' E 139°39'0 0.0
2017-Feb-27 00:31N 35°23' E 139°39'0 0.0
2017-Feb-26 23:31N 35°23' E 139°39'0 0.0
2017-Feb-26 22:31N 35°23' E 139°39'4 4.2
2017-Feb-26 21:33N 35°21' E 139°42'1312.6
2017-Feb-26 20:33N 35°08' E 139°45'1918.5
2017-Feb-26 19:32N 34°55' E 139°29'7 0.2
2017-Feb-25 13:25N 34°52' E 139°21'1720.0
2017-Feb-25 12:33N 35°03' E 139°38'1515.1
2017-Feb-25 11:33N 35°16' E 139°45'9 8.8
2017-Feb-25 10:33N 35°23' E 139°39'0 0.0
2017-Feb-25 09:31N 35°23' E 139°39'0 0.0
2017-Feb-25 08:31N 35°23' E 139°39'0 0.0
2017-Feb-25 07:31N 35°23' E 139°39'0 0.0
2017-Feb-25 06:31N 35°23' E 139°39'0 0.0
2017-Feb-25 05:31N 35°23' E 139°39'0 0.2
2017-Feb-25 04:33N 35°24' E 139°39'9 8.7
2017-Feb-25 03:33N 35°17' E 139°46'1616.3
2017-Feb-25 02:33N 35°01' E 139°44'3514.9
2017-Feb-25 00:13N 35°04' E 140°26'15 0.4
2017-Feb-23 14:08N 34°56' E 140°10'1517.6
2017-Feb-23 13:16N 34°50' E 139°53'1013.9
2017-Feb-23 12:32N 34°54' E 139°42'1414.7
2017-Feb-23 11:33N 35°09' E 139°44'1211.7
2017-Feb-23 10:33N 35°20' E 139°42'1010.5
2017-Feb-23 09:33N 35°30' E 139°46'0 0.0
2017-Feb-23 08:33N 35°30' E 139°46'0 0.0
2017-Feb-23 07:33N 35°30' E 139°46'0 0.0
2017-Feb-23 06:30N 35°30' E 139°46'0 0.0
2017-Feb-23 05:31N 35°30' E 139°46'4 4.2
2017-Feb-23 04:33N 35°27' E 139°43'5 4.9
2017-Feb-23 03:33N 35°23' E 139°39'0 0.0
2017-Feb-23 02:33N 35°23' E 139°39'0 0.0
2017-Feb-23 01:33N 35°23' E 139°39'0 0.0
2017-Feb-23 00:33N 35°23' E 139°39'0 0.0
2017-Feb-22 23:33N 35°23' E 139°39'0 0.5
2017-Feb-22 22:34N 35°24' E 139°39'1110.6
2017-Feb-22 21:33N 35°15' E 139°47'1616.3
2017-Feb-22 20:33N 35°01' E 139°38'12 0.4
2017-Feb-21 12:03N 34°55' E 139°25'1019.7
2017-Feb-21 11:33N 35°01' E 139°35'1616.5
2017-Feb-21 10:34N 35°15' E 139°46'1010.2
2017-Feb-21 09:32N 35°23' E 139°39'0 0.0
2017-Feb-21 08:32N 35°23' E 139°39'0 0.0
2017-Feb-21 07:32N 35°23' E 139°39'0 0.0
2017-Feb-21 06:32N 35°23' E 139°39'0 0.0
2017-Feb-21 05:32N 35°23' E 139°39'0 0.0
2017-Feb-21 04:32N 35°23' E 139°39'7 6.9
2017-Feb-21 03:33N 35°18' E 139°44'1313.4
2017-Feb-21 02:33N 35°05' E 139°45'18 0.5
2017-Feb-19 12:27N 34°54' E 140°02'1415.9
2017-Feb-19 11:32N 34°56' E 139°44'1717.7
2017-Feb-19 10:34N 35°13' E 139°46'1312.7
2017-Feb-19 09:34N 35°26' E 139°45'4 4.4
2017-Feb-19 08:33N 35°30' E 139°46'0 0.0
2017-Feb-19 07:33N 35°30' E 139°46'0 0.0
2017-Feb-19 06:33N 35°30' E 139°46'0 0.0
2017-Feb-19 05:33N 35°30' E 139°46'2 2.1
2017-Feb-19 04:34N 35°30' E 139°43'7 7.2
2017-Feb-19 03:34N 35°23' E 139°39'0 0.0
2017-Feb-19 02:32N 35°23' E 139°39'0 0.0
2017-Feb-19 01:32N 35°23' E 139°39'0 0.0
2017-Feb-19 00:32N 35°23' E 139°39'0 0.0
2017-Feb-18 23:32N 35°23' E 139°39'1 0.8
2017-Feb-18 22:33N 35°23' E 139°40'1211.8
2017-Feb-18 21:33N 35°13' E 139°47'1615.8
2017-Feb-18 20:33N 35°00' E 139°36'26 0.8
2017-Feb-17 13:19N 34°43' E 139°12'1115.1
2017-Feb-17 12:33N 34°52' E 139°21'  
Track history (hours):
 
Tides and Currents Weather Stations Pressure Air Temp Water Temp Dewpoint Dewpoint Depression Visibility Wind Speed Wind Dir Waves Ship Positions

Toyofujimaru No.2

Last reported at 2017-Feb-27 12:30 UTC. Time now 2017-Feb-28 10:03 UTC.
Position N 34°56' E 140°10'.

Length 165 m; draft 6.2 m.

Type: Ship. MMSI: 432667000.

Date/timePositionNaut miles runAvg speedWind from/ knotsBaromVisibWave heightAir tempDewpointWater temp
2017-Feb-27 12:30N 34°56' E 140°10'1918.2
2017-Feb-27 11:28N 34°51' E 139°48'1617.7
2017-Feb-27 10:33N 35°07' E 139°44'1312.8
2017-Feb-27 09:33N 35°20' E 139°43'1110.9
2017-Feb-27 08:33N 35°30' E 139°46'0 0.0
2017-Feb-27 07:32N 35°30' E 139°46'0 0.0
2017-Feb-27 06:32N 35°30' E 139°46'0 0.0
2017-Feb-27 05:32N 35°30' E 139°46'0 0.0
2017-Feb-27 04:32N 35°30' E 139°46'5 5.2
2017-Feb-27 03:33N 35°26' E 139°43'4 4.0
2017-Feb-27 02:31N 35°23' E 139°39'0 0.0
2017-Feb-27 01:31N 35°23' E 139°39'0 0.0
2017-Feb-27 00:31N 35°23' E 139°39'0 0.0
2017-Feb-26 23:31N 35°23' E 139°39'0 0.0
2017-Feb-26 22:31N 35°23' E 139°39'4 4.2
2017-Feb-26 21:33N 35°21' E 139°42'1312.6
2017-Feb-26 20:33N 35°08' E 139°45'1918.5
2017-Feb-26 19:32N 34°55' E 139°29'7 0.2
2017-Feb-25 13:25N 34°52' E 139°21'1720.0
2017-Feb-25 12:33N 35°03' E 139°38'1515.1
2017-Feb-25 11:33N 35°16' E 139°45'9 8.8
2017-Feb-25 10:33N 35°23' E 139°39'0 0.0
2017-Feb-25 09:31N 35°23' E 139°39'0 0.0
2017-Feb-25 08:31N 35°23' E 139°39'0 0.0
2017-Feb-25 07:31N 35°23' E 139°39'0 0.0
2017-Feb-25 06:31N 35°23' E 139°39'0 0.0
2017-Feb-25 05:31N 35°23' E 139°39'0 0.2
2017-Feb-25 04:33N 35°24' E 139°39'9 8.7
2017-Feb-25 03:33N 35°17' E 139°46'1616.3
2017-Feb-25 02:33N 35°01' E 139°44'3514.9
2017-Feb-25 00:13N 35°04' E 140°26'15 0.4
2017-Feb-23 14:08N 34°56' E 140°10'1517.6
2017-Feb-23 13:16N 34°50' E 139°53'1013.9
2017-Feb-23 12:32N 34°54' E 139°42'1414.7
2017-Feb-23 11:33N 35°09' E 139°44'1211.7
2017-Feb-23 10:33N 35°20' E 139°42'1010.5
2017-Feb-23 09:33N 35°30' E 139°46'0 0.0
2017-Feb-23 08:33N 35°30' E 139°46'0 0.0
2017-Feb-23 07:33N 35°30' E 139°46'0 0.0
2017-Feb-23 06:30N 35°30' E 139°46'0 0.0
2017-Feb-23 05:31N 35°30' E 139°46'4 4.2
2017-Feb-23 04:33N 35°27' E 139°43'5 4.9
2017-Feb-23 03:33N 35°23' E 139°39'0 0.0
2017-Feb-23 02:33N 35°23' E 139°39'0 0.0
2017-Feb-23 01:33N 35°23' E 139°39'0 0.0
2017-Feb-23 00:33N 35°23' E 139°39'0 0.0
2017-Feb-22 23:33N 35°23' E 139°39'0 0.5
2017-Feb-22 22:34N 35°24' E 139°39'1110.6
2017-Feb-22 21:33N 35°15' E 139°47'1616.3
2017-Feb-22 20:33N 35°01' E 139°38'12 0.4
2017-Feb-21 12:03N 34°55' E 139°25'1019.7
2017-Feb-21 11:33N 35°01' E 139°35'1616.5
2017-Feb-21 10:34N 35°15' E 139°46'1010.2
2017-Feb-21 09:32N 35°23' E 139°39'0 0.0
2017-Feb-21 08:32N 35°23' E 139°39'0 0.0
2017-Feb-21 07:32N 35°23' E 139°39'0 0.0
2017-Feb-21 06:32N 35°23' E 139°39'0 0.0
2017-Feb-21 05:32N 35°23' E 139°39'0 0.0
2017-Feb-21 04:32N 35°23' E 139°39'7 6.9
2017-Feb-21 03:33N 35°18' E 139°44'1313.4
2017-Feb-21 02:33N 35°05' E 139°45'18 0.5
2017-Feb-19 12:27N 34°54' E 140°02'1415.9
2017-Feb-19 11:32N 34°56' E 139°44'1717.7
2017-Feb-19 10:34N 35°13' E 139°46'1312.7
2017-Feb-19 09:34N 35°26' E 139°45'4 4.4
2017-Feb-19 08:33N 35°30' E 139°46'0 0.0
2017-Feb-19 07:33N 35°30' E 139°46'0 0.0
2017-Feb-19 06:33N 35°30' E 139°46'0 0.0
2017-Feb-19 05:33N 35°30' E 139°46'2 2.1
2017-Feb-19 04:34N 35°30' E 139°43'7 7.2
2017-Feb-19 03:34N 35°23' E 139°39'0 0.0
2017-Feb-19 02:32N 35°23' E 139°39'0 0.0
2017-Feb-19 01:32N 35°23' E 139°39'0 0.0
2017-Feb-19 00:32N 35°23' E 139°39'0 0.0
2017-Feb-18 23:32N 35°23' E 139°39'1 0.8
2017-Feb-18 22:33N 35°23' E 139°40'1211.8
2017-Feb-18 21:33N 35°13' E 139°47'1615.8
2017-Feb-18 20:33N 35°00' E 139°36'26 0.8
2017-Feb-17 13:19N 34°43' E 139°12'1115.1
2017-Feb-17 12:33N 34°52' E 139°21'  

Dump ship's entire track history